createdAt,value
2022-07-26T00:02:18.254Z,19.87
2022-07-26T00:04:48.023Z,19.90
2022-07-26T00:07:17.628Z,19.89
2022-07-26T00:09:48.494Z,19.92
2022-07-26T00:12:18.530Z,19.92
2022-07-26T00:14:47.911Z,19.92
2022-07-26T00:17:17.270Z,19.95
2022-07-26T00:19:46.665Z,20.00
2022-07-26T00:22:28.579Z,19.97
2022-07-26T00:24:58.603Z,19.99
2022-07-26T00:27:28.016Z,20.02
2022-07-26T00:29:57.447Z,20.00
2022-07-26T00:32:26.762Z,20.05
2022-07-26T00:34:56.113Z,20.05
2022-07-26T00:37:25.653Z,20.06
2022-07-26T00:39:55.011Z,20.07
2022-07-26T00:42:24.401Z,20.06
2022-07-26T00:44:53.934Z,20.08
2022-07-26T00:47:23.419Z,20.10
2022-07-26T00:49:53.260Z,20.05
2022-07-26T00:52:22.600Z,20.11
2022-07-26T00:54:54.718Z,20.12
2022-07-26T00:57:25.780Z,20.10
2022-07-26T00:59:55.185Z,20.09
2022-07-26T01:02:24.601Z,20.16
2022-07-26T01:04:53.972Z,20.16
2022-07-26T01:07:25.232Z,20.11
2022-07-26T01:09:54.688Z,20.08
2022-07-26T01:12:24.023Z,20.04
2022-07-26T01:14:53.355Z,19.99
2022-07-26T01:17:22.833Z,20.03
2022-07-26T01:19:52.206Z,20.04
2022-07-26T01:22:21.608Z,20.04
2022-07-26T01:24:50.938Z,20.00
2022-07-26T01:27:20.671Z,20.05
2022-07-26T01:29:51.815Z,20.05
2022-07-26T01:32:22.255Z,20.04
2022-07-26T01:34:51.600Z,20.07
2022-07-26T01:37:21.056Z,20.00
2022-07-26T01:39:50.445Z,19.95
2022-07-26T01:42:19.800Z,19.93
2022-07-26T01:44:49.184Z,19.90
2022-07-26T01:47:18.634Z,19.92
2022-07-26T01:49:47.960Z,19.92
2022-07-26T01:52:17.277Z,19.90
2022-07-26T01:54:46.649Z,19.88
2022-07-26T01:57:16.038Z,19.90
2022-07-26T01:59:45.331Z,19.91
2022-07-26T02:02:14.809Z,19.92
2022-07-26T02:04:59.319Z,19.93
2022-07-26T02:07:30.724Z,19.96
2022-07-26T02:10:02.957Z,19.90
2022-07-26T02:12:32.855Z,19.88
2022-07-26T02:15:02.320Z,19.87
2022-07-26T02:17:31.680Z,19.88
2022-07-26T02:20:01.050Z,19.89
2022-07-26T02:22:30.459Z,19.88
2022-07-26T02:25:04.818Z,19.90
2022-07-26T02:27:34.909Z,19.89
2022-07-26T02:30:04.667Z,19.89
2022-07-26T02:32:34.085Z,19.86
2022-07-26T02:35:03.412Z,19.88
2022-07-26T02:37:32.696Z,19.94
2022-07-26T02:40:14.249Z,19.95
2022-07-26T02:42:46.279Z,19.89
2022-07-26T02:45:15.819Z,19.83
2022-07-26T02:47:52.544Z,19.77
2022-07-26T02:50:24.216Z,19.76
2022-07-26T02:52:56.400Z,19.76
2022-07-26T02:55:26.853Z,19.69
2022-07-26T02:57:56.673Z,19.64
2022-07-26T03:00:28.965Z,19.62
2022-07-26T03:02:58.315Z,19.59
2022-07-26T03:05:27.883Z,19.53
2022-07-26T03:07:57.153Z,19.52
2022-07-26T03:10:26.538Z,19.49
2022-07-26T03:12:55.863Z,19.44
2022-07-26T03:15:25.424Z,19.49
2022-07-26T03:17:55.350Z,19.46
2022-07-26T03:20:26.801Z,19.44
2022-07-26T03:22:56.200Z,19.46
2022-07-26T03:25:25.742Z,19.47
2022-07-26T03:27:58.750Z,19.44
2022-07-26T03:30:28.979Z,19.46
2022-07-26T03:32:58.394Z,19.45
2022-07-26T03:35:28.170Z,19.50
2022-07-26T03:37:57.469Z,19.52
2022-07-26T03:40:26.878Z,19.53
2022-07-26T03:42:56.182Z,19.55
2022-07-26T03:45:25.537Z,19.52
2022-07-26T03:47:54.837Z,19.46
2022-07-26T03:50:24.143Z,19.52
2022-07-26T03:52:53.508Z,19.49
2022-07-26T03:55:37.940Z,19.48
2022-07-26T03:58:07.261Z,19.43
2022-07-26T04:00:36.658Z,19.39
2022-07-26T04:03:05.989Z,19.39
2022-07-26T04:05:36.194Z,19.37
2022-07-26T04:08:05.801Z,19.36
2022-07-26T04:10:35.333Z,19.33
2022-07-26T04:13:04.686Z,19.34
2022-07-26T04:15:34.007Z,19.31
2022-07-26T04:18:03.389Z,19.23
2022-07-26T04:20:32.792Z,19.28
2022-07-26T04:23:02.136Z,19.33
2022-07-26T04:25:38.538Z,19.26
2022-07-26T04:28:10.758Z,19.33
2022-07-26T04:30:42.717Z,19.33
2022-07-26T04:33:12.483Z,19.39
2022-07-26T04:35:42.023Z,19.45
2022-07-26T04:38:14.379Z,19.45
2022-07-26T04:40:43.776Z,19.47
2022-07-26T04:43:15.641Z,19.52
2022-07-26T04:45:45.923Z,19.58
2022-07-26T04:48:16.125Z,19.63
2022-07-26T04:50:46.240Z,19.62
2022-07-26T04:53:16.103Z,19.67
2022-07-26T04:55:45.605Z,19.70
2022-07-26T04:58:15.150Z,19.73
2022-07-26T05:01:08.625Z,19.79
2022-07-26T05:03:35.053Z,19.82
2022-07-26T05:06:04.789Z,19.87
2022-07-26T05:08:34.205Z,19.88
2022-07-26T05:11:04.266Z,19.91
2022-07-26T05:13:33.691Z,19.95
2022-07-26T05:16:03.103Z,19.98
2022-07-26T05:18:45.863Z,20.02
2022-07-26T05:21:19.617Z,20.10
2022-07-26T05:23:49.033Z,20.15
2022-07-26T05:26:18.447Z,20.08
2022-07-26T05:28:47.782Z,20.09
2022-07-26T05:31:17.245Z,20.08
2022-07-26T05:33:46.561Z,20.07
2022-07-26T05:36:15.991Z,20.10
2022-07-26T05:38:45.421Z,20.09
2022-07-26T05:41:14.821Z,20.11
2022-07-26T05:43:47.018Z,20.15
2022-07-26T05:46:16.383Z,20.21
2022-07-26T05:48:45.936Z,20.19
2022-07-26T05:51:30.304Z,20.21
2022-07-26T05:53:59.979Z,20.27
2022-07-26T05:56:29.365Z,20.34
2022-07-26T05:58:58.672Z,20.29
2022-07-26T06:01:29.660Z,20.34
2022-07-26T06:04:02.212Z,20.31
2022-07-26T06:06:31.610Z,20.36
2022-07-26T06:09:00.972Z,20.29
2022-07-26T06:11:30.316Z,20.39
2022-07-26T06:13:59.704Z,20.43
2022-07-26T06:16:29.031Z,20.59
2022-07-26T06:18:58.421Z,20.64
2022-07-26T06:21:27.967Z,20.59
2022-07-26T06:23:57.558Z,20.75
2022-07-26T06:26:27.108Z,20.69
2022-07-26T06:28:57.190Z,20.82
2022-07-26T06:31:26.950Z,20.93
2022-07-26T06:33:56.788Z,21.12
2022-07-26T06:36:30.509Z,21.21
2022-07-26T06:39:02.015Z,21.38
2022-07-26T06:41:32.240Z,21.46
2022-07-26T06:44:31.957Z,21.36
2022-07-26T07:05:43.342Z,22.22
2022-07-26T07:10:25.190Z,21.88
2022-07-26T07:13:01.463Z,22.59
2022-07-26T07:19:28.226Z,22.57
2022-07-26T07:25:30.340Z,22.41
2022-07-26T07:28:02.263Z,22.42
2022-07-26T07:30:31.869Z,22.42
2022-07-26T07:33:01.202Z,22.57
2022-07-26T07:35:33.002Z,22.49
2022-07-26T07:38:02.466Z,22.44
2022-07-26T07:40:32.192Z,22.44
2022-07-26T07:43:01.761Z,22.47
2022-07-26T07:45:31.194Z,22.58
2022-07-26T07:48:00.534Z,22.67
2022-07-26T07:50:30.091Z,22.89
2022-07-26T07:52:59.455Z,23.11
2022-07-26T07:55:41.089Z,23.56
2022-07-26T07:58:13.313Z,23.64
2022-07-26T08:00:44.513Z,23.45
2022-07-26T08:03:18.046Z,23.43
2022-07-26T08:05:50.648Z,23.32
2022-07-26T08:08:22.561Z,23.23
2022-07-26T08:10:53.363Z,23.27
2022-07-26T08:13:24.903Z,23.51
2022-07-26T08:15:56.028Z,23.50
2022-07-26T08:18:26.541Z,23.63
2022-07-26T08:20:57.120Z,23.50
2022-07-26T08:23:26.523Z,23.60
2022-07-26T08:26:01.951Z,23.61
2022-07-26T08:28:58.306Z,23.64
2022-07-26T08:31:23.647Z,23.60
2022-07-26T08:33:53.130Z,23.57
2022-07-26T08:36:22.598Z,23.47
2022-07-26T08:38:52.556Z,23.29
2022-07-26T08:41:23.234Z,23.12
2022-07-26T08:43:53.818Z,22.94
2022-07-26T08:46:27.470Z,22.23
2022-07-26T08:49:00.738Z,21.77
2022-07-26T08:51:30.420Z,21.62
2022-07-26T08:54:05.884Z,21.43
2022-07-26T08:56:37.890Z,21.22
2022-07-26T08:59:21.841Z,21.07
2022-07-26T09:02:04.360Z,21.11
2022-07-26T09:04:44.751Z,20.94
2022-07-26T09:07:19.073Z,21.00
2022-07-26T09:09:57.674Z,20.96
2022-07-26T09:12:29.173Z,21.01
2022-07-26T09:14:59.821Z,20.90
2022-07-26T09:17:52.756Z,20.77
2022-07-26T09:20:28.521Z,20.66
2022-07-26T09:23:09.897Z,20.77
2022-07-26T09:25:42.407Z,20.74
2022-07-26T09:28:29.950Z,20.82
2022-07-26T09:31:04.601Z,20.98
2022-07-26T09:33:54.429Z,21.18
2022-07-26T09:36:24.245Z,21.48
2022-07-26T09:38:56.082Z,21.61
2022-07-26T09:41:38.402Z,21.56
2022-07-26T09:44:09.876Z,21.58
2022-07-26T09:46:56.499Z,21.75
2022-07-26T09:49:39.980Z,21.81
2022-07-26T09:52:24.465Z,21.68
2022-07-26T09:54:53.759Z,21.89
2022-07-26T09:57:24.289Z,22.01
2022-07-26T09:59:53.901Z,22.13
2022-07-26T10:02:23.403Z,22.07
2022-07-26T10:04:52.887Z,22.07
2022-07-26T10:07:22.457Z,22.08
2022-07-26T10:09:58.857Z,21.92
2022-07-26T10:12:31.446Z,21.65
2022-07-26T10:15:00.880Z,21.40
2022-07-26T10:17:35.107Z,21.31
2022-07-26T10:20:17.471Z,21.18
2022-07-26T10:22:50.963Z,21.15
2022-07-26T10:25:20.382Z,21.07
2022-07-26T10:27:55.330Z,20.97
2022-07-26T10:30:35.345Z,21.01
2022-07-26T10:33:09.448Z,20.96
2022-07-26T10:35:40.275Z,21.02
2022-07-26T10:38:17.136Z,21.15
2022-07-26T10:41:00.127Z,21.28
2022-07-26T10:43:41.194Z,21.48
2022-07-26T10:46:23.462Z,21.81
2022-07-26T10:49:04.713Z,21.97
2022-07-26T10:51:38.181Z,22.31
2022-07-26T10:54:13.830Z,22.55
2022-07-26T10:56:50.557Z,22.66
2022-07-26T10:59:54.699Z,22.85
2022-07-26T11:05:29.204Z,23.30
2022-07-26T11:08:11.372Z,23.24
2022-07-26T11:10:47.318Z,23.25
2022-07-26T11:13:39.372Z,23.42
2022-07-26T11:16:12.192Z,23.51
2022-07-26T11:18:42.895Z,23.43
2022-07-26T11:21:32.576Z,23.25
2022-07-26T11:24:19.988Z,22.90
2022-07-26T11:27:16.314Z,22.99
2022-07-26T11:29:50.191Z,23.08
2022-07-26T11:32:26.461Z,23.23
2022-07-26T11:35:08.169Z,23.11
2022-07-26T11:37:38.222Z,23.26
2022-07-26T11:40:08.409Z,23.48
2022-07-26T11:42:44.401Z,23.32
2022-07-26T11:45:14.401Z,22.58
2022-07-26T11:47:44.134Z,22.00
2022-07-26T11:50:21.905Z,21.72
2022-07-26T11:52:52.012Z,21.44
2022-07-26T11:55:33.827Z,21.18
2022-07-26T11:58:09.451Z,20.99
2022-07-26T12:00:38.875Z,20.85
2022-07-26T12:03:08.317Z,20.71
2022-07-26T12:05:38.046Z,20.73
2022-07-26T12:08:08.335Z,20.77
2022-07-26T12:10:37.711Z,20.77
2022-07-26T12:13:17.250Z,20.75
2022-07-26T12:15:56.353Z,20.74
2022-07-26T12:18:31.406Z,20.73
2022-07-26T12:21:11.492Z,20.82
2022-07-26T12:23:45.757Z,20.72
2022-07-26T12:26:28.827Z,20.67
2022-07-26T12:28:59.870Z,20.57
2022-07-26T12:31:35.369Z,20.70
2022-07-26T12:34:04.817Z,20.74
2022-07-26T12:36:36.282Z,20.68
2022-07-26T12:39:07.514Z,20.68
2022-07-26T12:41:43.212Z,20.74
2022-07-26T12:44:13.363Z,20.79
2022-07-26T12:46:44.918Z,20.87
2022-07-26T12:49:14.718Z,20.91
2022-07-26T12:51:46.239Z,20.93
2022-07-26T12:54:15.807Z,20.97
2022-07-26T12:56:46.551Z,21.01
2022-07-26T12:59:18.132Z,21.02
2022-07-26T13:01:47.864Z,21.11
2022-07-26T13:04:17.515Z,21.26
2022-07-26T13:06:46.963Z,21.38
2022-07-26T13:09:17.193Z,21.39
2022-07-26T13:11:46.803Z,21.44
2022-07-26T13:14:16.175Z,21.38
2022-07-26T13:16:45.572Z,21.47
2022-07-26T13:19:14.982Z,21.49
2022-07-26T13:21:52.398Z,21.50
2022-07-26T13:24:22.928Z,21.56
2022-07-26T13:26:52.973Z,21.62
2022-07-26T13:29:23.245Z,21.75
2022-07-26T13:31:53.911Z,21.85
2022-07-26T13:34:23.701Z,21.97
2022-07-26T13:36:53.643Z,22.00
2022-07-26T13:39:23.011Z,22.05
2022-07-26T13:41:52.474Z,22.12
2022-07-26T13:44:22.250Z,22.14
2022-07-26T13:46:51.741Z,22.11
2022-07-26T13:49:21.237Z,22.09
2022-07-26T13:52:00.512Z,21.91
2022-07-26T13:54:34.201Z,21.62
2022-07-26T13:57:07.857Z,21.25
2022-07-26T13:59:37.270Z,20.89
2022-07-26T14:02:07.178Z,20.52
2022-07-26T14:04:36.582Z,20.37
2022-07-26T14:07:06.004Z,20.31
2022-07-26T14:09:35.359Z,20.30
2022-07-26T14:12:04.694Z,20.31
2022-07-26T14:14:35.118Z,20.35
2022-07-26T14:17:04.610Z,20.34
2022-07-26T14:19:34.057Z,20.37
2022-07-26T14:22:03.355Z,20.43
2022-07-26T14:24:32.800Z,20.53
2022-07-26T14:27:02.806Z,20.51
2022-07-26T14:29:32.454Z,20.53
2022-07-26T14:32:01.971Z,20.59
2022-07-26T14:34:31.519Z,20.61
2022-07-26T14:37:01.231Z,20.62
2022-07-26T14:39:38.148Z,20.63
2022-07-26T14:42:07.975Z,20.67
2022-07-26T14:44:44.241Z,20.65
2022-07-26T14:47:16.247Z,20.64
2022-07-26T14:49:45.829Z,20.62
2022-07-26T14:52:15.611Z,20.62
2022-07-26T14:54:45.508Z,20.69
2022-07-26T14:57:14.983Z,20.75
2022-07-26T14:59:44.720Z,20.84
2022-07-26T15:02:15.581Z,20.84
2022-07-26T15:04:45.052Z,20.75
2022-07-26T15:07:14.735Z,20.69
2022-07-26T15:09:47.232Z,20.68
2022-07-26T15:12:16.940Z,20.71
2022-07-26T15:14:46.364Z,20.74
2022-07-26T15:17:16.219Z,20.80
2022-07-26T15:19:45.693Z,20.83
2022-07-26T15:22:15.180Z,20.86
2022-07-26T15:24:45.511Z,20.88
2022-07-26T15:27:15.241Z,20.98
2022-07-26T15:29:46.969Z,20.97
2022-07-26T15:32:16.638Z,21.02
2022-07-26T15:34:46.090Z,21.08
2022-07-26T15:37:15.442Z,21.14
2022-07-26T15:39:45.049Z,21.09
2022-07-26T15:42:17.761Z,21.02
2022-07-26T15:44:48.345Z,21.07
2022-07-26T15:47:51.268Z,20.98
2022-07-26T15:50:12.263Z,20.92
2022-07-26T15:52:44.543Z,20.83
2022-07-26T15:55:15.254Z,20.77
2022-07-26T15:57:45.997Z,20.84
2022-07-26T16:00:16.728Z,20.88
2022-07-26T16:02:46.179Z,20.93
2022-07-26T16:05:15.725Z,20.97
2022-07-26T16:07:47.892Z,20.95
2022-07-26T16:10:17.995Z,21.00
2022-07-26T16:12:47.359Z,21.14
2022-07-26T16:15:16.768Z,21.16
2022-07-26T16:17:46.123Z,21.14
2022-07-26T16:20:15.867Z,21.22
2022-07-26T16:22:45.293Z,21.35
2022-07-26T16:25:16.187Z,21.37
2022-07-26T16:27:46.051Z,21.26
2022-07-26T16:30:16.666Z,21.23
2022-07-26T16:32:46.133Z,21.20
2022-07-26T16:35:16.131Z,21.20
2022-07-26T16:37:45.483Z,21.26
2022-07-26T16:40:14.858Z,21.24
2022-07-26T16:42:46.996Z,21.16
2022-07-26T16:45:16.519Z,21.19
2022-07-26T16:47:45.871Z,21.27
2022-07-26T16:50:27.390Z,21.20
2022-07-26T16:52:57.489Z,21.28
2022-07-26T16:55:26.858Z,21.34
2022-07-26T16:57:56.288Z,21.40
2022-07-26T17:00:25.721Z,21.52
2022-07-26T17:02:55.534Z,21.62
2022-07-26T17:05:24.926Z,21.71
2022-07-26T17:07:54.279Z,21.67
2022-07-26T17:10:23.626Z,21.68
2022-07-26T17:12:53.099Z,21.67
2022-07-26T17:15:22.611Z,21.69
2022-07-26T17:17:52.014Z,21.75
2022-07-26T17:20:21.472Z,21.70
2022-07-26T17:22:50.867Z,21.70
2022-07-26T17:25:20.491Z,21.68
2022-07-26T17:27:49.831Z,21.71
2022-07-26T17:30:19.630Z,21.58
2022-07-26T17:32:49.078Z,21.52
2022-07-26T17:35:19.025Z,21.46
2022-07-26T17:37:48.371Z,21.38
2022-07-26T17:40:18.496Z,21.30
2022-07-26T17:42:47.860Z,21.25
2022-07-26T17:45:17.371Z,21.30
2022-07-26T17:47:46.901Z,21.22
2022-07-26T17:53:05.717Z,21.02
2022-07-26T17:55:37.768Z,20.94
2022-07-26T17:58:07.127Z,20.89
2022-07-26T18:00:36.895Z,20.89
2022-07-26T18:03:06.318Z,20.82
2022-07-26T18:05:39.616Z,20.84
2022-07-26T18:08:10.631Z,20.73
2022-07-26T18:10:39.953Z,20.72
2022-07-26T18:13:09.253Z,20.69
2022-07-26T18:15:38.858Z,20.70
2022-07-26T18:18:08.803Z,20.65
2022-07-26T18:20:38.152Z,20.68
2022-07-26T18:23:07.519Z,20.64
2022-07-26T18:25:37.112Z,20.64
2022-07-26T18:28:07.456Z,20.52
2022-07-26T18:30:37.064Z,20.58
2022-07-26T18:33:10.993Z,20.47
2022-07-26T18:35:41.251Z,20.40
2022-07-26T18:38:10.912Z,20.30
2022-07-26T18:40:40.566Z,20.16
2022-07-26T18:43:10.081Z,20.06
2022-07-26T18:45:40.219Z,19.97
2022-07-26T18:48:12.396Z,19.94
2022-07-26T18:50:44.051Z,19.90
2022-07-26T18:53:13.513Z,19.82
2022-07-26T18:55:42.861Z,19.66
2022-07-26T18:58:12.150Z,19.67
2022-07-26T19:00:42.851Z,19.61
2022-07-26T19:03:12.150Z,19.52
2022-07-26T19:05:41.746Z,19.52
2022-07-26T19:08:11.254Z,19.52
2022-07-26T19:10:40.689Z,19.37
2022-07-26T19:13:10.287Z,19.32
2022-07-26T19:15:39.755Z,19.35
2022-07-26T19:18:16.423Z,19.30
2022-07-26T19:20:47.044Z,19.24
2022-07-26T19:23:16.508Z,19.20
2022-07-26T19:25:47.304Z,19.15
2022-07-26T19:28:16.743Z,19.10
2022-07-26T19:30:46.267Z,19.02
2022-07-26T19:33:16.918Z,18.94
2022-07-26T19:35:46.224Z,18.90
2022-07-26T19:38:15.848Z,18.77
2022-07-26T19:40:47.219Z,18.76
2022-07-26T19:43:16.663Z,18.61
2022-07-26T19:45:45.972Z,18.54
2022-07-26T19:48:16.569Z,18.53
2022-07-26T19:50:45.928Z,18.47
2022-07-26T19:53:15.282Z,18.41
2022-07-26T19:55:44.608Z,18.41
2022-07-26T19:58:16.809Z,18.36
2022-07-26T20:00:46.118Z,18.32
2022-07-26T20:03:15.629Z,18.25
2022-07-26T20:05:46.200Z,18.28
2022-07-26T20:08:15.651Z,18.30
2022-07-26T20:10:44.994Z,18.26
2022-07-26T20:13:14.961Z,18.22
2022-07-26T20:15:47.392Z,18.24
2022-07-26T20:18:18.329Z,18.13
2022-07-26T20:20:47.875Z,18.20
2022-07-26T20:23:17.168Z,18.17
2022-07-26T20:25:46.459Z,18.14
2022-07-26T20:28:15.811Z,18.12
2022-07-26T20:30:48.306Z,18.09
2022-07-26T20:33:17.926Z,18.13
2022-07-26T20:35:52.922Z,18.02
2022-07-26T20:38:25.174Z,18.01
2022-07-26T20:40:54.888Z,17.99
2022-07-26T20:43:24.315Z,17.97
2022-07-26T20:45:57.146Z,17.88
2022-07-26T20:48:26.560Z,17.87
2022-07-26T20:50:55.968Z,17.93
2022-07-26T20:53:25.321Z,17.96
2022-07-26T20:55:55.368Z,17.91
2022-07-26T20:58:24.687Z,17.85
2022-07-26T21:00:54.087Z,17.91
2022-07-26T21:03:23.631Z,17.88
2022-07-26T21:05:53.003Z,17.83
2022-07-26T21:08:22.349Z,17.83
2022-07-26T21:10:51.809Z,17.80
2022-07-26T21:13:21.458Z,17.82
2022-07-26T21:15:53.359Z,17.85
2022-07-26T21:18:25.863Z,17.79
2022-07-26T21:20:55.275Z,17.70
2022-07-26T21:23:24.674Z,17.71
2022-07-26T21:25:58.083Z,17.69
2022-07-26T21:28:30.388Z,17.67
2022-07-26T21:30:59.933Z,17.67
2022-07-26T21:33:29.373Z,17.59
2022-07-26T21:35:58.894Z,17.54
2022-07-26T21:38:29.926Z,17.52
2022-07-26T21:40:59.221Z,17.50
2022-07-26T21:43:28.891Z,17.44
2022-07-26T21:45:58.419Z,17.44
2022-07-26T21:48:27.810Z,17.40
2022-07-26T21:50:57.135Z,17.42
2022-07-26T21:53:26.472Z,17.45
2022-07-26T21:55:55.812Z,17.44
2022-07-26T21:58:27.857Z,17.40
2022-07-26T22:01:06.527Z,17.34
2022-07-26T22:03:38.167Z,17.32
2022-07-26T22:06:08.691Z,17.28
2022-07-26T22:08:38.997Z,17.24
2022-07-26T22:11:08.664Z,17.23
2022-07-26T22:13:38.773Z,17.17
2022-07-26T22:16:09.450Z,17.17
2022-07-26T22:18:38.838Z,17.15
2022-07-26T22:21:08.373Z,17.09
2022-07-26T22:23:37.713Z,17.04
2022-07-26T22:26:08.108Z,17.00
2022-07-26T22:28:38.291Z,16.97
2022-07-26T22:31:07.588Z,16.92
2022-07-26T22:33:36.931Z,16.85
2022-07-26T22:36:06.606Z,16.81
2022-07-26T22:38:35.996Z,16.74
2022-07-26T22:41:05.337Z,16.71
2022-07-26T22:43:34.723Z,16.67
2022-07-26T22:46:04.180Z,16.64
2022-07-26T22:48:37.927Z,16.56
2022-07-26T22:51:07.837Z,16.49
2022-07-26T22:53:37.216Z,16.43
2022-07-26T22:56:06.697Z,16.37
2022-07-26T22:58:36.025Z,16.31
2022-07-26T23:01:05.385Z,16.28
2022-07-26T23:03:34.893Z,16.23
2022-07-26T23:06:17.534Z,16.16
2022-07-26T23:08:57.049Z,16.06
2022-07-26T23:11:26.430Z,16.03
2022-07-26T23:13:58.951Z,15.97
2022-07-26T23:16:29.059Z,15.94
2022-07-26T23:18:58.480Z,15.88
2022-07-26T23:21:27.782Z,15.83
2022-07-26T23:23:57.335Z,15.78
2022-07-26T23:26:26.801Z,15.73
2022-07-26T23:28:56.167Z,15.61
2022-07-26T23:31:25.505Z,15.57
2022-07-26T23:33:54.972Z,15.54
2022-07-26T23:36:28.677Z,15.52
2022-07-26T23:39:00.021Z,15.50
2022-07-26T23:41:30.837Z,15.45
2022-07-26T23:44:00.260Z,15.43
2022-07-26T23:46:29.712Z,15.41
2022-07-26T23:49:00.219Z,15.38
2022-07-26T23:51:30.071Z,15.34
2022-07-26T23:53:59.664Z,15.36
2022-07-26T23:56:28.961Z,15.34
2022-07-26T23:58:58.338Z,15.35
